Time;durP1;ratioP1;P1;durP2;ratioP2;P2;SDS_P1;SDS_P2;PMS_P1;PMS_P2;Temp;Humidity;BMP_temperature;BMP_pressure;BME280_temperature;BME280_humidity;BME280_pressure;Samples;Min_cycle;Max_cycle;Signal;HPM_P1;HPM_P2
2022/10/07 00:04:06;;;;;;;2.03;0.40;;;;;;;11.05;85.33;100275.25;10486314;27;20047;-80
2022/10/07 00:09:09;;;;;;;2.97;0.80;;;;;;;11.07;85.02;100275.78;10511327;27;20086;-80
2022/10/07 00:14:11;;;;;;;3.58;0.60;;;;;;;11.06;85.22;100276.91;10506156;27;20041;-80
2022/10/07 00:19:13;;;;;;;2.70;0.73;;;;;;;11.02;85.28;100297.81;10510232;27;20110;-79
2022/10/07 00:24:15;;;;;;;4.80;0.90;;;;;;;10.93;85.63;100288.56;10503293;27;20140;-80
2022/10/07 00:29:17;;;;;;;3.60;0.45;;;;;;;10.88;85.16;100283.97;10465362;28;20127;-81
2022/10/07 00:34:20;;;;;;;4.53;0.60;;;;;;;10.88;86.04;100291.38;10456339;28;20051;-80
2022/10/07 00:39:22;;;;;;;3.22;0.50;;;;;;;10.82;85.77;100303.53;10462658;27;20033;-80
2022/10/07 00:44:31;;;;;;;3.13;0.82;;;;;;;10.83;85.82;100310.66;10473834;28;20057;-78
2022/10/07 00:49:39;;;;;;;;;;;;;;;10.87;85.74;100308.97;10449075;27;20418;-79
2022/10/07 00:54:42;;;;;;;1.60;0.60;;;;;;;10.92;85.75;100310.84;10497567;28;19920;-80
2022/10/07 00:59:44;;;;;;;4.45;1.08;;;;;;;10.92;85.56;100299.84;10477987;27;20100;-81
2022/10/07 01:04:47;;;;;;;2.45;0.90;;;;;;;10.94;86.28;100312.19;10464601;27;20144;-78
2022/10/07 01:09:51;;;;;;;4.97;0.65;;;;;;;10.91;86.31;100323.75;10487480;28;20033;-79
2022/10/07 01:15:07;;;;;;;5.43;0.77;;;;;;;10.85;85.68;100322.16;10473307;27;20463;-79
2022/10/07 01:20:29;;;;;;;5.90;1.25;;;;;;;10.88;86.01;100329.81;10458941;27;20041;-79
2022/10/07 01:25:44;;;;;;;5.07;0.90;;;;;;;10.81;86.34;100329.34;10438076;28;20047;-79
2022/10/07 01:30:50;;;;;;;5.00;1.08;;;;;;;10.83;86.12;100333.44;10474671;27;20042;-79
2022/10/07 01:35:54;;;;;;;2.65;0.45;;;;;;;10.81;86.36;100338.41;10448813;28;20033;-79
2022/10/07 01:41:14;;;;;;;1.38;0.40;;;;;;;10.85;86.95;100344.13;10459206;27;20047;-79
2022/10/07 01:46:21;;;;;;;3.35;0.52;;;;;;;10.88;85.86;100352.59;10515881;27;20054;-79
2022/10/07 01:51:24;;;;;;;3.83;0.57;;;;;;;10.84;86.40;100356.22;10530974;27;20097;-79
2022/10/07 01:56:44;;;;;;;2.10;0.60;;;;;;;10.84;86.19;100356.22;10498951;28;20542;-79
2022/10/07 02:02:17;;;;;;;2.28;0.43;;;;;;;10.84;85.95;100356.22;10447020;28;20037;-79
2022/10/07 02:07:33;;;;;;;7.82;1.00;;;;;;;10.89;86.60;100364.41;10470888;28;20061;-79
2022/10/07 02:12:47;;;;;;;6.28;1.00;;;;;;;10.90;86.36;100362.47;10489114;27;20043;-80
2022/10/07 02:17:53;;;;;;;3.67;1.00;;;;;;;10.85;85.95;100368.84;10459277;28;20044;-79
2022/10/07 02:22:57;;;;;;;3.63;0.80;;;;;;;10.90;86.70;100349.56;10462107;28;20078;-80
2022/10/07 02:28:04;;;;;;;1.85;0.90;;;;;;;10.94;85.86;100356.13;10449790;27;20038;-78
2022/10/07 02:33:08;;;;;;;4.43;0.73;;;;;;;10.97;86.14;100366.53;10480378;27;20045;-79
2022/10/07 02:38:13;;;;;;;3.80;0.60;;;;;;;11.04;85.52;100358.75;10449745;27;20048;-79
2022/10/07 02:43:55;;;;;;;2.22;0.85;;;;;;;11.08;85.40;100358.97;10454625;28;20425;-79
2022/10/07 02:49:01;;;;;;;8.65;0.93;;;;;;;11.08;84.96;100357.06;10494274;28;20045;-79
2022/10/07 02:54:05;;;;;;;6.13;0.85;;;;;;;11.07;84.99;100354.59;10425826;28;20045;-79
2022/10/07 02:59:09;;;;;;;12.20;1.00;;;;;;;11.02;84.68;100346.44;10500432;28;20033;-80
2022/10/07 03:04:12;;;;;;;2.20;0.35;;;;;;;11.00;84.64;100343.97;10496743;27;20057;-79
2022/10/07 03:09:14;;;;;;;2.85;0.70;;;;;;;10.96;85.13;100351.16;10464941;28;20041;-80
2022/10/07 03:14:18;;;;;;;4.28;1.00;;;;;;;10.94;85.14;100347.06;10450893;27;20033;-81
2022/10/07 03:19:21;;;;;;;3.17;0.75;;;;;;;10.84;86.34;100347.97;10448319;27;20037;-81
2022/10/07 03:24:31;;;;;;;3.70;0.63;;;;;;;10.77;87.59;100366.72;10490164;28;20061;-80
2022/10/07 03:29:34;;;;;;;3.55;0.85;;;;;;;10.70;88.13;100352.50;10498616;28;20143;-79
2022/10/07 03:34:38;;;;;;;4.68;0.60;;;;;;;10.60;89.40;100366.34;10448006;28;20064;-79
2022/10/07 03:39:40;;;;;;;6.15;1.08;;;;;;;10.53;89.51;100356.50;10470425;27;20039;-79
2022/10/07 03:44:44;;;;;;;4.90;0.80;;;;;;;10.48;90.09;100377.69;10480770;28;20041;-79
2022/10/07 03:49:48;;;;;;;2.83;1.00;;;;;;;10.56;90.41;100371.56;10466241;27;20054;-79
2022/10/07 03:54:51;;;;;;;8.15;1.20;;;;;;;10.62;90.31;100366.88;10505627;27;20525;-78
2022/10/07 03:59:53;;;;;;;2.22;0.60;;;;;;;10.52;90.58;100371.31;10556201;27;20044;-79
2022/10/07 04:04:56;;;;;;;4.07;1.27;;;;;;;10.53;90.45;100367.47;10492905;28;20064;-79
2022/10/07 04:09:59;;;;;;;3.70;0.90;;;;;;;10.52;90.15;100373.25;10463210;28;20049;-79
2022/10/07 04:15:03;;;;;;;3.95;0.77;;;;;;;10.61;90.04;100371.53;10478369;28;20064;-79
2022/10/07 04:20:06;;;;;;;5.45;0.82;;;;;;;10.61;90.09;100368.78;10460520;28;20052;-80
2022/10/07 04:30:37;;;;;;;6.40;1.08;;;;;;;10.46;90.70;100385.38;10434330;28;20053;-81
2022/10/07 04:35:40;;;;;;;3.20;0.88;;;;;;;10.46;90.97;100388.13;10430254;28;20395;-82
2022/10/07 04:40:46;;;;;;;8.52;1.20;;;;;;;10.45;91.81;100395.53;10478041;28;20040;-81
2022/10/07 04:45:59;;;;;;;2.30;0.70;;;;;;;10.58;91.12;100383.88;10446986;28;20055;-81
2022/10/07 04:51:03;;;;;;;2.88;0.90;;;;;;;10.73;90.84;100382.13;10463346;28;20033;-82
2022/10/07 04:56:07;;;;;;;3.70;0.90;;;;;;;10.97;89.91;100383.00;10452719;28;20052;-82
2022/10/07 05:01:09;;;;;;;4.38;0.82;;;;;;;11.11;89.02;100408.66;10444965;28;20044;-80
2022/10/07 05:06:17;;;;;;;3.20;0.93;;;;;;;11.26;87.85;100417.81;10440747;28;20053;-79
2022/10/07 05:11:19;;;;;;;5.70;1.27;;;;;;;11.27;88.21;100423.03;10467515;28;20052;-79
2022/10/07 05:16:31;;;;;;;8.77;1.77;;;;;;;11.40;87.81;100424.28;10440034;28;20037;-77
2022/10/07 05:21:34;;;;;;;2.88;0.93;;;;;;;11.38;87.78;100429.25;10462178;28;20041;-79
2022/10/07 05:26:39;;;;;;;4.35;0.98;;;;;;;11.35;87.56;100436.16;10434925;28;20069;-79
2022/10/07 05:31:43;;;;;;;7.32;1.08;;;;;;;11.22;87.94;100431.34;10485056;28;20033;-79
2022/10/07 05:36:46;;;;;;;3.22;0.88;;;;;;;11.00;88.24;100456.53;10461912;28;20052;-79
2022/10/07 05:41:49;;;;;;;6.38;1.77;;;;;;;10.85;88.43;100452.00;10429988;28;20045;-79
2022/10/07 05:46:54;;;;;;;4.43;0.82;;;;;;;10.91;89.35;100466.50;10423936;28;20418;-79
2022/10/07 05:51:57;;;;;;;4.40;0.95;;;;;;;10.79;89.60;100474.28;10427949;28;20037;-79
2022/10/07 05:56:59;;;;;;;1.60;0.90;;;;;;;10.83;89.50;100484.41;10434951;28;20047;-79
2022/10/07 06:02:05;;;;;;;5.53;1.30;;;;;;;10.82;89.62;100493.75;10527373;28;20055;-79
2022/10/07 06:07:14;;;;;;;5.32;0.70;;;;;;;10.80;89.64;100492.41;10494424;28;20064;-79
2022/10/07 06:17:43;;;;;;;1.92;0.93;;;;;;;10.87;90.02;100512.09;10468579;28;20391;-79
2022/10/07 06:22:47;;;;;;;6.85;1.50;;;;;;;10.87;90.25;100512.09;10426804;28;20053;-79
2022/10/07 06:27:55;;;;;;;5.88;1.33;;;;;;;10.71;90.23;100521.53;10411737;28;20049;-79
2022/10/07 06:32:58;;;;;;;3.57;1.20;;;;;;;10.77;91.08;100529.47;10436345;28;20126;-78
2022/10/07 06:38:01;;;;;;;3.90;1.13;;;;;;;10.79;91.07;100537.44;10450341;28;20426;-79
2022/10/07 06:43:03;;;;;;;6.47;1.60;;;;;;;10.90;91.09;100535.41;10467466;28;20061;-79
2022/10/07 06:48:12;;;;;;;7.57;1.50;;;;;;;10.89;90.65;100548.31;10466798;28;20060;-79
2022/10/07 06:53:14;;;;;;;7.20;1.80;;;;;;;11.03;90.16;100545.75;10466770;28;20045;-79
2022/10/07 06:58:17;;;;;;;6.43;1.20;;;;;;;11.28;90.08;100539.22;10451394;28;20041;-78
2022/10/07 07:03:20;;;;;;;11.43;1.40;;;;;;;11.44;88.98;100546.22;10467538;28;20056;-78
2022/10/07 07:08:26;;;;;;;6.93;1.50;;;;;;;11.54;86.93;100556.31;10467028;28;20047;-78
2022/10/07 07:13:30;;;;;;;4.85;1.30;;;;;;;11.72;86.56;100563.81;10468408;28;20045;-78
2022/10/07 07:18:32;;;;;;;8.40;2.20;;;;;;;11.71;85.55;100582.25;10429229;28;20046;-78
2022/10/07 07:23:35;;;;;;;6.07;1.27;;;;;;;11.65;85.31;100583.41;10447400;28;20491;-78
2022/10/07 07:28:40;;;;;;;10.55;1.42;;;;;;;11.94;84.96;100577.91;10425148;28;20046;-78
2022/10/07 07:33:43;;;;;;;10.25;1.35;;;;;;;12.20;82.90;100556.44;10505520;28;20065;-78
2022/10/07 07:39:03;;;;;;;5.25;1.70;;;;;;;12.69;81.43;100577.25;10524711;28;20048;-78
2022/10/07 07:44:10;;;;;;;9.88;1.60;;;;;;;13.26;79.27;100569.81;10456567;28;20037;-79
2022/10/07 07:49:13;;;;;;;7.22;1.15;;;;;;;13.02;78.42;100580.09;10476335;28;20060;-79
2022/10/07 07:54:17;;;;;;;5.53;1.25;;;;;;;13.10;78.43;100598.69;10465209;28;20517;-79
2022/10/07 07:59:24;;;;;;;7.45;1.42;;;;;;;13.23;77.24;100592.47;10468002;28;20060;-79
2022/10/07 08:04:28;;;;;;;11.75;2.28;;;;;;;13.18;77.12;100614.56;10462332;28;20510;-79
2022/10/07 08:09:31;;;;;;;6.85;1.55;;;;;;;13.33;76.67;100605.25;10457191;28;20131;-79
2022/10/07 08:20:05;;;;;;;14.15;2.10;;;;;;;13.41;76.31;100624.69;10481945;27;20041;-78
2022/10/07 08:25:07;;;;;;;7.38;2.13;;;;;;;13.75;74.83;100634.59;10464346;28;20085;-79
2022/10/07 08:30:11;;;;;;;5.57;1.80;;;;;;;13.97;73.17;100640.25;10447943;28;20132;-79
2022/10/07 08:35:13;;;;;;;7.78;1.17;;;;;;;13.72;73.31;100654.50;10465646;27;20673;-79
2022/10/07 08:40:16;;;;;;;7.75;1.35;;;;;;;13.32;74.39;100662.28;10472969;27;20640;-79
2022/10/07 08:45:30;;;;;;;7.57;2.00;;;;;;;13.06;76.01;100674.78;10482951;28;20045;-79
2022/10/07 08:50:55;;;;;;;6.63;1.38;;;;;;;12.66;76.44;100657.66;10464735;28;20045;-79
2022/10/07 08:56:12;;;;;;;3.90;1.40;;;;;;;12.28;79.06;100674.06;10548639;27;20418;-79
2022/10/07 09:01:33;;;;;;;2.97;1.02;;;;;;;12.08;80.17;100682.53;10489587;28;20044;-79
2022/10/07 09:06:42;;;;;;;9.98;1.63;;;;;;;12.10;80.60;100679.50;10521245;28;20037;-82
2022/10/07 09:11:49;;;;;;;12.55;2.78;;;;;;;12.13;80.80;100676.97;10469520;28;20048;-82
2022/10/07 09:16:52;;;;;;;8.18;1.75;;;;;;;12.13;80.95;100682.47;10479050;28;20048;-82
2022/10/07 09:22:02;;;;;;;9.82;1.70;;;;;;;12.14;80.43;100688.81;10478204;28;20049;-82
2022/10/07 09:27:12;;;;;;;10.77;1.63;;;;;;;12.13;80.51;100696.25;10479069;28;20045;-82
2022/10/07 09:32:16;;;;;;;7.20;1.58;;;;;;;12.07;80.73;100722.97;10472202;27;20037;-83
2022/10/07 09:37:26;;;;;;;11.43;1.40;;;;;;;12.03;80.69;100699.91;10445702;28;20037;-83
2022/10/07 09:42:41;;;;;;;10.57;1.75;;;;;;;12.19;80.65;100706.09;10483359;28;20037;-84
2022/10/07 09:47:44;;;;;;;8.85;2.22;;;;;;;12.24;80.50;100711.53;10495095;28;20503;-81
2022/10/07 09:52:54;;;;;;;8.57;2.33;;;;;;;12.42;80.13;100722.91;10453934;28;20037;-83
2022/10/07 09:58:06;;;;;;;8.80;1.70;;;;;;;12.47;79.17;100717.34;10438208;28;20053;-83
2022/10/07 10:03:08;;;;;;;8.00;1.58;;;;;;;12.57;78.56;100714.50;10454873;28;20041;-84
2022/10/07 10:08:16;;;;;;;8.73;1.40;;;;;;;12.71;77.55;100709.94;10470282;28;20037;-84
2022/10/07 10:13:39;;;;;;;6.25;1.20;;;;;;;12.77;77.54;100692.22;10485902;28;20052;-83
2022/10/07 10:18:52;;;;;;;3.58;0.93;;;;;;;12.73;77.38;100710.47;10467953;28;20084;-84
2022/10/07 10:29:38;;;;;;;9.82;1.80;;;;;;;12.75;76.61;100726.69;10442168;27;20498;-84
2022/10/07 10:34:53;;;;;;;11.80;1.60;;;;;;;12.75;76.50;100730.25;10630748;27;20049;-86
2022/10/07 10:40:06;;;;;;;9.40;1.85;;;;;;;12.68;76.41;100735.31;10533538;27;20037;-88
2022/10/07 10:45:34;;;;;;;5.15;1.13;;;;;;;12.66;76.65;100751.28;10471593;28;20060;-87
2022/10/07 10:50:57;;;;;;;9.13;1.65;;;;;;;12.72;76.55;100746.56;10485381;28;20037;-84
2022/10/07 10:56:09;;;;;;;4.47;1.60;;;;;;;12.68;76.73;100751.84;10519326;28;20047;-84
2022/10/07 11:01:33;;;;;;;9.05;1.75;;;;;;;12.77;77.08;100740.97;10483068;27;20446;-85
2022/10/07 11:06:37;;;;;;;8.82;1.67;;;;;;;12.79;76.76;100747.00;10466704;28;20044;-85
2022/10/07 11:12:10;;;;;;;6.10;1.33;;;;;;;12.78;76.50;100757.19;10470366;28;20049;-85
2022/10/07 11:17:38;;;;;;;5.25;1.48;;;;;;;12.71;77.28;100737.47;10471412;28;20526;-85
2022/10/07 11:22:49;;;;;;;7.10;1.48;;;;;;;12.70;77.11;100749.59;10483934;28;20049;-85
2022/10/07 11:27:53;;;;;;;6.20;1.63;;;;;;;12.64;77.47;100756.25;10465476;28;20057;-85
2022/10/07 11:38:34;;;;;;;7.60;1.52;;;;;;;12.71;77.57;100756.75;10479216;28;20041;-84
2022/10/07 11:43:52;;;;;;;9.52;2.58;;;;;;;12.80;76.51;100760.47;10457585;28;20065;-85
2022/10/07 11:49:04;;;;;;;10.25;1.38;;;;;;;12.81;76.09;100753.03;10424119;28;20038;-84
2022/10/07 11:54:13;;;;;;;4.75;1.63;;;;;;;12.89;75.55;100750.47;10424148;28;20041;-85
2022/10/07 11:59:30;;;;;;;7.63;1.73;;;;;;;12.88;74.54;100746.09;10427554;28;20043;-84
2022/10/07 12:04:34;;;;;;;7.15;1.50;;;;;;;12.87;74.00;100760.97;10476688;28;20130;-85
2022/10/07 12:10:05;;;;;;;4.78;1.10;;;;;;;12.85;73.94;100763.19;10423485;28;20051;-85
2022/10/07 12:15:32;;;;;;;4.50;1.30;;;;;;;12.85;73.63;100752.19;10441035;28;20053;-85
2022/10/07 12:20:57;;;;;;;6.45;1.67;;;;;;;12.87;73.27;100769.22;10419878;28;20046;-85
2022/10/07 12:26:03;;;;;;;9.20;1.52;;;;;;;12.93;73.33;100772.75;10441959;28;20517;-86
2022/10/07 12:31:26;;;;;;;6.60;1.70;;;;;;;12.98;72.47;100775.41;10446693;27;20052;-89
2022/10/07 12:36:29;;;;;;;10.05;1.67;;;;;;;12.89;72.50;100769.75;10444403;28;20092;-85
2022/10/07 12:41:35;;;;;;;9.82;1.77;;;;;;;12.84;73.08;100772.56;10508426;28;20059;-84
2022/10/07 12:46:49;;;;;;;5.68;1.13;;;;;;;12.84;73.25;100772.56;10463230;28;20041;-87
2022/10/07 12:51:52;;;;;;;5.43;1.38;;;;;;;12.82;73.25;100780.28;10454867;27;20442;-86
2022/10/07 12:56:55;;;;;;;5.72;1.05;;;;;;;12.76;73.92;100786.16;10439039;28;20037;-85
2022/10/07 13:02:07;;;;;;;5.75;0.90;;;;;;;12.71;74.36;100783.47;10418079;28;20033;-82
2022/10/07 13:07:48;;;;;;;5.13;1.50;;;;;;;12.75;74.95;100806.53;10465832;28;20045;-84
2022/10/07 13:13:23;;;;;;;8.00;1.25;;;;;;;12.79;74.63;100797.41;10424003;28;20049;-81
2022/10/07 13:18:36;;;;;;;9.90;2.22;;;;;;;12.80;74.56;100799.03;10442347;28;20068;-82
2022/10/07 13:23:38;;;;;;;6.38;1.38;;;;;;;12.73;74.96;100804.09;10439230;28;20049;-86
2022/10/07 13:28:47;;;;;;;6.30;1.42;;;;;;;12.73;74.34;100809.59;10421222;28;20037;-87
2022/10/07 13:33:50;;;;;;;5.80;1.35;;;;;;;12.76;75.11;100808.19;10421296;28;20407;-88
2022/10/07 13:39:11;;;;;;;7.57;1.77;;;;;;;12.79;74.49;100819.44;10422067;28;20134;-88
2022/10/07 13:44:17;;;;;;;5.47;1.35;;;;;;;12.80;74.23;100818.31;10437859;28;20130;-87
2022/10/07 13:49:25;;;;;;;8.35;1.58;;;;;;;12.81;73.97;100817.19;10438663;28;20049;-88
2022/10/07 13:54:29;;;;;;;8.98;1.80;;;;;;;12.76;73.21;100824.69;10421008;28;20045;-88
2022/10/07 13:59:35;;;;;;;9.05;1.58;;;;;;;12.67;73.64;100825.34;10418014;28;20037;-86
2022/10/07 14:05:08;;;;;;;8.50;1.30;;;;;;;12.61;73.53;100823.72;10433026;28;20067;-87
2022/10/07 14:10:12;;;;;;;9.48;1.40;;;;;;;12.59;73.63;100827.91;10418034;28;20053;-90
2022/10/07 14:15:59;;;;;;;4.38;1.10;;;;;;;12.60;74.07;100829.53;10430115;28;20044;-82
2022/10/07 14:21:13;;;;;;;3.08;1.10;;;;;;;12.65;73.92;100833.03;10500678;27;20078;-82
2022/10/07 14:26:16;;;;;;;6.53;1.40;;;;;;;12.65;73.50;100837.75;10478811;27;20410;-77
2022/10/07 14:37:09;;;;;;;5.00;1.20;;;;;;;12.47;74.02;100835.72;10505888;27;20043;-83
2022/10/07 14:42:19;;;;;;;6.05;1.60;;;;;;;12.47;74.45;100846.72;10466804;27;20052;-81
2022/10/07 14:47:23;;;;;;;8.07;1.60;;;;;;;12.53;74.90;100851.09;10526710;27;20056;-80
2022/10/07 14:52:51;;;;;;;11.32;1.77;;;;;;;12.50;75.64;100849.72;10472798;28;20044;-77
2022/10/07 14:57:54;;;;;;;8.15;1.65;;;;;;;12.53;76.26;100860.16;10496284;27;20050;-84
2022/10/07 15:02:57;;;;;;;11.27;1.88;;;;;;;12.48;75.87;100851.09;10499648;27;20040;-80
2022/10/07 15:08:03;;;;;;;4.72;1.20;;;;;;;12.46;76.51;100858.84;10484896;28;20056;-87
2022/10/07 15:13:08;;;;;;;8.75;1.67;;;;;;;12.50;76.91;100865.44;10522800;27;20045;-84
2022/10/07 15:18:55;;;;;;;4.75;1.30;;;;;;;12.55;77.54;100862.63;10460914;28;20048;-84
2022/10/07 15:24:22;;;;;;;8.85;2.08;;;;;;;12.45;77.99;100858.00;10479487;28;20049;-83
2022/10/07 15:29:25;;;;;;;9.63;1.92;;;;;;;12.47;77.76;100860.47;10457308;27;20041;-79
2022/10/07 15:34:27;;;;;;;8.45;1.42;;;;;;;12.41;78.21;100862.47;10468482;28;20499;-80
2022/10/07 15:39:30;;;;;;;8.02;1.50;;;;;;;12.52;78.36;100869.53;10517754;27;20045;-79
2022/10/07 15:44:32;;;;;;;8.43;1.55;;;;;;;12.52;78.18;100869.53;10451771;28;20068;-79
2022/10/07 15:49:35;;;;;;;8.98;1.45;;;;;;;12.44;78.60;100867.38;10457166;28;20045;-79
2022/10/07 15:54:38;;;;;;;5.97;1.83;;;;;;;12.48;78.81;100867.63;10489357;28;20047;-78
2022/10/07 15:59:41;;;;;;;9.70;1.60;;;;;;;12.57;78.96;100871.41;10485306;27;20060;-80
2022/10/07 16:04:44;;;;;;;7.60;1.55;;;;;;;12.56;78.17;100867.03;10455443;28;20052;-81
2022/10/07 16:09:46;;;;;;;3.95;1.45;;;;;;;12.56;78.09;100869.78;10444111;28;20044;-78
2022/10/07 16:14:49;;;;;;;8.38;2.47;;;;;;;12.60;77.57;100860.63;10441338;28;20053;-80
2022/10/07 16:19:51;;;;;;;10.40;2.67;;;;;;;12.65;77.64;100865.28;10477106;27;20037;-80
2022/10/07 16:24:54;;;;;;;11.35;2.53;;;;;;;12.67;77.62;100860.31;10462690;28;20060;-79
2022/10/07 16:35:17;;;;;;;8.40;2.85;;;;;;;12.67;76.59;100860.31;10453560;28;20041;-79
2022/10/07 16:40:19;;;;;;;9.15;2.97;;;;;;;12.70;77.09;100859.75;10459439;27;20418;-82
2022/10/07 16:45:22;;;;;;;9.68;2.38;;;;;;;12.82;76.76;100859.31;10477035;27;20041;-81
2022/10/07 16:50:24;;;;;;;7.75;2.55;;;;;;;12.79;76.64;100855.22;10467776;27;20052;-79
2022/10/07 16:55:26;;;;;;;13.23;3.10;;;;;;;12.72;75.97;100846.50;10471176;27;20053;-80
2022/10/07 17:00:28;;;;;;;8.70;2.75;;;;;;;12.68;76.16;100845.44;10463078;27;20037;-78
2022/10/07 17:05:30;;;;;;;5.15;2.25;;;;;;;12.70;76.38;100840.47;10452190;28;20145;-79
2022/10/07 17:10:32;;;;;;;7.93;2.42;;;;;;;12.64;76.72;100838.84;10467202;27;20034;-78
2022/10/07 17:15:38;;;;;;;7.22;1.67;;;;;;;12.51;76.70;100843.13;10483682;28;20396;-79
2022/10/07 17:20:47;;;;;;;8.73;1.98;;;;;;;12.54;77.47;100833.47;10461038;27;20068;-81
2022/10/07 17:25:49;;;;;;;5.78;1.67;;;;;;;12.58;77.21;100831.75;10465760;28;20413;-82
2022/10/07 17:30:51;;;;;;;5.95;1.75;;;;;;;12.58;76.96;100831.75;10477574;28;20442;-81
2022/10/07 17:36:00;;;;;;;5.97;1.20;;;;;;;12.53;76.85;100826.31;10456000;27;20395;-83
2022/10/07 17:41:29;;;;;;;6.40;1.55;;;;;;;12.50;77.30;100827.72;10439238;28;20504;-84
2022/10/07 17:46:31;;;;;;;9.77;2.20;;;;;;;12.47;77.33;100816.44;10444417;28;20045;-86
2022/10/07 17:51:35;;;;;;;4.72;1.17;;;;;;;12.62;77.49;100803.34;10461204;28;20033;-84
2022/10/07 17:56:38;;;;;;;5.07;1.60;;;;;;;12.83;77.44;100801.19;10437475;28;20502;-88
2022/10/07 18:01:41;;;;;;;8.65;1.35;;;;;;;12.91;76.00;100802.50;10432346;27;20044;-84
2022/10/07 18:06:43;;;;;;;4.68;1.38;;;;;;;12.72;75.61;100809.88;10473465;27;20412;-85
2022/10/07 18:17:40;;;;;;;5.88;1.40;;;;;;;12.55;76.41;100802.06;10478482;28;20072;-82
2022/10/07 18:22:43;;;;;;;7.07;1.83;;;;;;;12.47;76.33;100810.94;10451899;28;20554;-82
2022/10/07 18:27:45;;;;;;;5.78;1.38;;;;;;;12.43;77.06;100816.19;10431883;28;20044;-82
2022/10/07 18:32:47;;;;;;;7.57;1.25;;;;;;;12.41;76.68;100812.09;10455097;28;20057;-83
2022/10/07 18:37:50;;;;;;;4.78;1.60;;;;;;;12.33;76.62;100810.81;10462381;27;20044;-83
2022/10/07 18:42:53;;;;;;;4.35;1.63;;;;;;;12.30;77.29;100816.88;10478363;28;20049;-82
2022/10/07 18:47:59;;;;;;;4.77;1.27;;;;;;;12.25;78.05;100808.66;10456810;27;20056;-82
2022/10/07 18:53:04;;;;;;;5.05;1.23;;;;;;;12.21;78.51;100807.59;10437663;28;20049;-78
2022/10/07 18:58:06;;;;;;;4.97;1.40;;;;;;;12.14;79.39;100810.66;10461698;28;20045;-79
2022/10/07 19:03:08;;;;;;;8.70;1.40;;;;;;;12.10;78.92;100804.09;10438191;27;20040;-78
2022/10/07 19:08:10;;;;;;;3.78;1.02;;;;;;;12.08;78.60;100809.06;10445874;27;20056;-78
2022/10/07 19:18:43;;;;;;;6.15;1.38;;;;;;;12.12;78.44;100788.13;10466145;28;20049;-77
2022/10/07 19:23:50;;;;;;;;;;;;;;;12.16;79.21;100783.72;10479900;27;20049;-77
2022/10/07 19:28:53;;;;;;;7.38;1.33;;;;;;;12.13;78.54;100794.44;10491866;28;19944;-79
2022/10/07 19:34:01;;;;;;;7.38;1.10;;;;;;;12.13;78.99;100795.28;10431395;28;20049;-77
2022/10/07 19:39:08;;;;;;;8.13;1.52;;;;;;;12.18;78.80;100787.00;10453309;27;20046;-75
2022/10/07 19:44:20;;;;;;;1.63;1.10;;;;;;;12.29;78.14;100794.03;10461288;27;20055;-75
2022/10/07 19:49:23;;;;;;;3.78;1.02;;;;;;;12.17;79.57;100777.09;10457875;28;20048;-74
2022/10/07 19:54:50;;;;;;;;;;;;;;;12.06;79.64;100770.84;10446521;27;20054;-76
2022/10/07 19:59:52;;;;;;;7.65;1.35;;;;;;;12.07;79.77;100777.19;10447799;28;19927;-78
2022/10/07 20:04:56;;;;;;;4.30;1.58;;;;;;;12.02;79.74;100777.22;10464859;27;20510;-75
2022/10/07 20:09:58;;;;;;;5.68;1.20;;;;;;;12.03;79.82;100776.13;10495392;27;20041;-76
2022/10/07 20:15:04;;;;;;;6.07;1.30;;;;;;;12.12;80.02;100768.88;10475807;27;20503;-76
2022/10/07 20:20:08;;;;;;;5.00;1.70;;;;;;;12.13;79.45;100761.44;10460480;27;20029;-76
2022/10/07 20:25:10;;;;;;;2.10;0.93;;;;;;;12.13;79.54;100759.50;10509931;27;20060;-77
2022/10/07 20:30:12;;;;;;;3.53;1.17;;;;;;;12.08;79.67;100751.31;10459711;28;20471;-77
2022/10/07 20:35:14;;;;;;;5.20;1.15;;;;;;;12.10;79.70;100762.03;10440009;28;20305;-74
2022/10/07 20:45:55;;;;;;;4.75;1.33;;;;;;;12.08;79.85;100767.81;10473985;27;20524;-76
2022/10/07 20:51:04;;;;;;;4.72;1.20;;;;;;;12.07;80.01;100760.66;10443214;28;20045;-75
2022/10/07 20:56:08;;;;;;;4.50;1.33;;;;;;;12.04;80.66;100747.50;10422101;28;20045;-77
2022/10/07 21:01:11;;;;;;;5.03;1.15;;;;;;;12.07;80.64;100746.91;10442230;28;20086;-74
2022/10/07 21:06:13;;;;;;;2.28;0.82;;;;;;;12.12;80.65;100741.38;10458577;27;20052;-74
2022/10/07 21:11:15;;;;;;;7.10;1.15;;;;;;;12.14;80.37;100730.88;10480271;28;20410;-74
2022/10/07 21:16:19;;;;;;;2.75;1.20;;;;;;;12.14;80.16;100735.56;10460535;28;20041;-78
2022/10/07 21:21:22;;;;;;;3.47;1.20;;;;;;;12.12;80.58;100738.63;10494826;27;20068;-74
2022/10/07 21:26:25;;;;;;;3.38;1.00;;;;;;;12.06;80.58;100728.78;10428115;28;20435;-74
2022/10/07 21:31:30;;;;;;;5.25;0.98;;;;;;;12.13;80.28;100711.94;10443027;28;20049;-76
2022/10/07 21:36:37;;;;;;;10.88;1.40;;;;;;;12.08;80.26;100727.38;10453085;27;20062;-75
2022/10/07 21:41:40;;;;;;;;;;;;;;;12.01;80.38;100720.59;10465541;28;20037;-77
2022/10/07 21:46:44;;;;;;;1.33;0.65;;;;;;;12.00;80.89;100710.69;10448501;28;20428;-75
2022/10/07 21:51:46;;;;;;;8.07;1.40;;;;;;;12.01;80.49;100712.31;10491558;28;20045;-71
2022/10/07 21:56:48;;;;;;;3.63;0.85;;;;;;;12.01;80.40;100706.81;10485554;27;20044;-73
2022/10/07 22:01:51;;;;;;;3.70;0.90;;;;;;;11.99;80.38;100706.31;10438738;27;20057;-73
2022/10/07 22:12:14;;;;;;;2.60;0.88;;;;;;;11.92;80.16;100708.53;10453273;28;20037;-71
2022/10/07 22:17:16;;;;;;;2.67;0.80;;;;;;;11.87;80.66;100701.16;10479497;28;20049;-73
2022/10/07 22:22:19;;;;;;;4.18;0.70;;;;;;;11.78;81.15;100700.94;10465887;28;20446;-73
2022/10/07 22:27:21;;;;;;;2.92;1.30;;;;;;;11.78;80.89;100695.44;10547880;28;20082;-73
2022/10/07 22:32:23;;;;;;;1.08;0.98;;;;;;;11.75;80.69;100695.19;10444861;27;20045;-73
2022/10/07 22:37:25;;;;;;;3.92;1.08;;;;;;;11.71;81.03;100700.44;10454729;28;20037;-73
2022/10/07 22:42:28;;;;;;;6.47;1.08;;;;;;;11.71;81.33;100683.94;10467128;28;20045;-72
2022/10/07 22:47:30;;;;;;;1.63;0.88;;;;;;;11.70;80.70;100682.31;10491173;28;20049;-72
2022/10/07 22:52:34;;;;;;;1.77;0.82;;;;;;;11.74;80.31;100675.13;10485089;28;20101;-75
2022/10/07 22:57:36;;;;;;;2.90;0.57;;;;;;;11.78;79.99;100669.84;10483977;28;20407;-76
2022/10/07 23:02:38;;;;;;;4.43;0.90;;;;;;;11.74;80.28;100664.13;10464320;28;20050;-75
2022/10/07 23:07:40;;;;;;;3.85;0.88;;;;;;;11.78;79.51;100664.38;10534762;27;20441;-75
2022/10/07 23:12:42;;;;;;;0.63;0.63;;;;;;;11.70;79.69;100657.56;10463179;28;20037;-75
2022/10/07 23:17:45;;;;;;;2.20;1.05;;;;;;;11.71;79.78;100666.63;10450890;27;20529;-75
2022/10/07 23:22:47;;;;;;;3.42;1.00;;;;;;;11.61;79.22;100672.19;10437527;28;20045;-75
2022/10/07 23:27:50;;;;;;;3.00;0.90;;;;;;;11.48;78.87;100670.94;10446223;28;20046;-75
2022/10/07 23:32:52;;;;;;;1.65;0.73;;;;;;;11.46;79.21;100681.41;10461107;28;20074;-78
2022/10/07 23:37:55;;;;;;;2.92;0.98;;;;;;;11.38;78.38;100676.50;10467176;27;20042;-75
2022/10/07 23:42:57;;;;;;;3.47;0.93;;;;;;;11.36;79.12;100679.53;10476219;27;20041;-75
2022/10/07 23:47:59;;;;;;;2.25;1.05;;;;;;;11.31;79.36;100676.03;10488910;28;20059;-75
2022/10/07 23:53:01;;;;;;;3.72;0.70;;;;;;;11.26;79.09;100671.34;10481770;27;20045;-75
2022/10/07 23:58:03;;;;;;;3.33;0.90;;;;;;;11.16;78.91;100679.69;10441638;28;20042;-75
